createdAt,value
2016-11-14T00:01:09.377Z,-2.06
2016-11-14T00:02:24.422Z,-2.2
2016-11-14T00:03:39.667Z,-2.08
2016-11-14T00:04:55.332Z,-2.1
2016-11-14T00:06:10.594Z,-1.95
2016-11-14T00:07:23.978Z,-1.98
2016-11-14T00:08:38.788Z,-1.9
2016-11-14T00:09:50.926Z,-1.87
2016-11-14T00:11:07.656Z,-1.92
2016-11-14T00:12:23.673Z,-1.92
2016-11-14T00:13:38.119Z,-1.88
2016-11-14T00:14:54.295Z,-1.92
2016-11-14T00:16:10.342Z,-1.88
2016-11-14T00:17:23.953Z,-1.98
2016-11-14T00:18:38.134Z,-1.87
2016-11-14T00:19:48.902Z,-1.96
2016-11-14T00:21:04.400Z,-1.82
2016-11-14T00:22:16.527Z,-1.87
2016-11-14T00:23:31.547Z,-1.85
2016-11-14T00:24:48.085Z,-1.82
2016-11-14T00:26:04.342Z,-1.77
2016-11-14T00:27:18.615Z,-1.72
2016-11-14T00:28:33.680Z,-1.69
2016-11-14T00:29:48.464Z,-1.74
2016-11-14T00:31:00.542Z,-1.69
2016-11-14T00:32:15.689Z,-1.62
2016-11-14T00:33:30.852Z,-1.46
2016-11-14T00:34:43.749Z,-1.49
2016-11-14T00:35:58.746Z,-1.53
2016-11-14T00:37:14.907Z,-1.45
2016-11-14T00:38:27.144Z,-1.48
2016-11-14T00:39:40.522Z,-1.54
2016-11-14T00:40:53.735Z,-1.62
2016-11-14T00:42:11.074Z,-1.57
2016-11-14T00:43:25.617Z,-1.54
2016-11-14T00:44:41.659Z,-1.51
2016-11-14T00:45:56.488Z,-1.56
2016-11-14T00:47:13.568Z,-1.53
2016-11-14T00:48:28.583Z,-1.45
2016-11-14T00:49:43.275Z,-1.62
2016-11-14T00:50:58.200Z,-1.49
2016-11-14T00:52:15.114Z,-1.45
2016-11-14T00:53:31.814Z,-1.48
2016-11-14T00:54:48.240Z,-1.43
2016-11-14T00:56:04.158Z,-1.53
2016-11-14T00:57:21.143Z,-1.53
2016-11-14T00:58:37.454Z,-1.51
2016-11-14T00:59:52.711Z,-1.56
2016-11-14T01:01:07.775Z,-1.57
2016-11-14T01:02:19.971Z,-1.59
2016-11-14T01:03:36.130Z,-1.59
2016-11-14T01:04:51.294Z,-1.66
2016-11-14T01:06:04.998Z,-1.6
2016-11-14T01:07:19.955Z,-1.59
2016-11-14T01:08:37.166Z,-1.59
2016-11-14T01:09:50.596Z,-1.67
2016-11-14T01:11:05.612Z,-1.6
2016-11-14T01:12:20.761Z,-1.59
2016-11-14T01:13:35.832Z,-1.64
2016-11-14T01:14:51.949Z,-1.59
2016-11-14T01:16:09.276Z,-1.7
2016-11-14T01:17:22.396Z,-1.66
2016-11-14T01:18:37.110Z,-1.67
2016-11-14T01:19:52.445Z,-1.6
2016-11-14T01:21:08.474Z,-1.67
2016-11-14T01:22:21.560Z,-1.64
2016-11-14T01:23:37.738Z,-1.66
2016-11-14T01:24:54.040Z,-1.6
2016-11-14T01:26:09.989Z,-1.66
2016-11-14T01:27:25.451Z,-1.64
2016-11-14T01:28:42.235Z,-1.56
2016-11-14T01:29:55.560Z,-1.49
2016-11-14T01:31:10.625Z,-1.45
2016-11-14T01:32:25.268Z,-1.49
2016-11-14T01:33:40.897Z,-1.48
2016-11-14T01:34:54.211Z,-1.56
2016-11-14T01:36:10.803Z,-1.63
2016-11-14T01:37:26.692Z,-1.72
2016-11-14T01:38:41.421Z,-1.69
2016-11-14T01:39:56.082Z,-1.69
2016-11-14T01:41:10.980Z,-1.78
2016-11-14T01:42:27.694Z,-1.77
2016-11-14T01:43:44.120Z,-1.85
2016-11-14T01:44:59.375Z,-1.92
2016-11-14T01:46:12.999Z,-1.87
2016-11-14T01:47:24.876Z,-1.9
2016-11-14T01:48:39.306Z,-1.92
2016-11-14T01:49:55.348Z,-1.88
2016-11-14T01:51:10.483Z,-2.02
2016-11-14T01:52:25.940Z,-2.03
2016-11-14T01:53:42.221Z,-2.13
2016-11-14T01:54:58.250Z,-2.1
2016-11-14T01:56:13.467Z,-2.06
2016-11-14T01:57:26.767Z,-2.06
2016-11-14T01:58:41.692Z,-2.13
2016-11-14T01:59:54.874Z,-2.24
2016-11-14T02:01:08.901Z,-2.03
2016-11-14T02:02:23.941Z,-2.14
2016-11-14T02:03:39.809Z,-2.1
2016-11-14T02:04:54.494Z,-2.1
2016-11-14T02:06:10.775Z,-2.06
2016-11-14T02:07:26.641Z,-2.08
2016-11-14T02:08:41.795Z,-2.08
2016-11-14T02:09:56.791Z,-1.92
2016-11-14T02:11:08.780Z,-2
2016-11-14T02:12:21.756Z,-2.05
2016-11-14T02:13:34.862Z,-1.93
2016-11-14T02:14:49.195Z,-2.05
2016-11-14T02:16:03.531Z,-1.96
2016-11-14T02:17:17.195Z,-1.96
2016-11-14T02:18:33.385Z,-2.11
2016-11-14T02:19:48.791Z,-2.2
2016-11-14T02:21:03.926Z,-2.17
2016-11-14T02:22:19.805Z,-2.11
2016-11-14T02:23:33.696Z,-2.17
2016-11-14T02:24:49.967Z,-2.26
2016-11-14T02:26:06.406Z,-2.1
2016-11-14T02:27:22.811Z,-2.11
2016-11-14T02:28:37.720Z,-1.95
2016-11-14T02:29:52.493Z,-1.93
2016-11-14T02:31:07.091Z,-1.93
2016-11-14T02:32:19.320Z,-1.85
2016-11-14T02:33:35.239Z,-1.78
2016-11-14T02:34:48.446Z,-1.7
2016-11-14T02:36:03.127Z,-1.8
2016-11-14T02:37:19.536Z,-1.8
2016-11-14T02:38:32.917Z,-1.8
2016-11-14T02:39:49.992Z,-1.81
2016-11-14T02:41:04.691Z,-1.8
2016-11-14T02:42:20.340Z,-1.9
2016-11-14T02:43:36.628Z,-1.85
2016-11-14T02:44:53.306Z,-1.87
2016-11-14T02:46:09.167Z,-1.87
2016-11-14T02:47:23.628Z,-1.88
2016-11-14T02:48:39.057Z,-1.9
2016-11-14T02:49:54.692Z,-1.88
2016-11-14T02:51:09.112Z,-1.69
2016-11-14T02:52:25.671Z,-1.66
2016-11-14T02:53:41.812Z,-1.7
2016-11-14T02:54:58.207Z,-1.66
2016-11-14T02:56:10.959Z,-1.67
2016-11-14T02:57:25.550Z,-1.6
2016-11-14T02:58:42.105Z,-1.53
2016-11-14T02:59:58.452Z,-1.48
2016-11-14T03:01:11.893Z,-1.49
2016-11-14T03:02:26.323Z,-1.56
2016-11-14T03:03:40.326Z,-1.54
2016-11-14T03:04:56.297Z,-1.54
2016-11-14T03:06:10.575Z,-1.59
2016-11-14T03:07:23.939Z,-1.54
2016-11-14T03:08:38.978Z,-1.64
2016-11-14T03:09:54.967Z,-1.51
2016-11-14T03:11:09.008Z,-1.56
2016-11-14T03:12:24.753Z,-1.53
2016-11-14T03:13:39.672Z,-1.48
2016-11-14T03:14:55.867Z,-1.42
2016-11-14T03:16:09.081Z,-1.42
2016-11-14T03:17:23.587Z,-1.49
2016-11-14T03:18:36.637Z,-1.41
2016-11-14T03:19:48.591Z,-1.35
2016-11-14T03:21:04.447Z,-1.38
2016-11-14T03:22:17.417Z,-1.38
2016-11-14T03:23:33.759Z,-1.42
2016-11-14T03:24:48.077Z,-1.42
2016-11-14T03:26:01.509Z,-1.41
2016-11-14T03:27:17.062Z,-1.41
2016-11-14T03:28:32.535Z,-1.31
2016-11-14T03:29:46.259Z,-1.31
2016-11-14T03:31:01.471Z,-1.28
2016-11-14T03:32:16.808Z,-1.28
2016-11-14T03:33:30.897Z,-1.21
2016-11-14T03:34:44.291Z,-1.25
2016-11-14T03:36:00.823Z,-1.27
2016-11-14T03:37:17.176Z,-1.3
2016-11-14T03:38:32.275Z,-1.31
2016-11-14T03:39:46.445Z,-1.31
2016-11-14T03:41:01.483Z,-1.23
2016-11-14T03:42:18.558Z,-1.25
2016-11-14T03:43:32.260Z,-1.23
2016-11-14T03:44:48.452Z,-1.28
2016-11-14T03:46:01.518Z,-1.2
2016-11-14T03:47:14.634Z,-1.23
2016-11-14T03:48:29.735Z,-1.38
2016-11-14T03:49:46.180Z,-1.35
2016-11-14T03:51:00.423Z,-1.45
2016-11-14T03:52:13.684Z,-1.45
2016-11-14T03:53:28.323Z,-1.41
2016-11-14T03:54:45.047Z,-1.53
2016-11-14T03:55:59.987Z,-1.59
2016-11-14T03:57:14.235Z,-1.56
2016-11-14T03:58:30.291Z,-1.51
2016-11-14T03:59:43.976Z,-1.51
2016-11-14T04:00:58.657Z,-1.49
2016-11-14T04:02:12.357Z,-1.54
2016-11-14T04:03:25.087Z,-1.49
2016-11-14T04:04:40.693Z,-1.51
2016-11-14T04:05:56.137Z,-1.51
2016-11-14T04:07:11.822Z,-1.53
2016-11-14T04:08:26.508Z,-1.45
2016-11-14T04:09:40.065Z,-1.48
2016-11-14T04:10:54.496Z,-1.41
2016-11-14T04:12:09.417Z,-1.48
2016-11-14T04:13:26.141Z,-1.46
2016-11-14T04:14:41.606Z,-1.43
2016-11-14T04:15:56.184Z,-1.49
2016-11-14T04:17:09.534Z,-1.49
2016-11-14T04:18:24.268Z,-1.41
2016-11-14T04:19:39.822Z,-1.54
2016-11-14T04:20:54.583Z,-1.49
2016-11-14T04:22:10.328Z,-1.51
2016-11-14T04:23:26.481Z,-1.63
2016-11-14T04:24:39.643Z,-1.66
2016-11-14T04:25:54.711Z,-1.64
2016-11-14T04:27:10.209Z,-1.74
2016-11-14T04:28:25.003Z,-1.74
2016-11-14T04:29:39.184Z,-1.67
2016-11-14T04:30:52.148Z,-1.74
2016-11-14T04:32:08.079Z,-1.69
2016-11-14T04:33:23.360Z,-1.64
2016-11-14T04:34:39.730Z,-1.59
2016-11-14T04:35:51.811Z,-1.62
2016-11-14T04:37:06.679Z,-1.56
2016-11-14T04:38:20.368Z,-1.53
2016-11-14T04:39:33.102Z,-1.51
2016-11-14T04:40:49.768Z,-1.57
2016-11-14T04:42:05.914Z,-1.59
2016-11-14T04:43:21.888Z,-1.64
2016-11-14T04:44:33.749Z,-1.7
2016-11-14T04:45:48.404Z,-1.69
2016-11-14T04:47:02.998Z,-1.7
2016-11-14T04:48:17.843Z,-1.69
2016-11-14T04:49:33.793Z,-1.77
2016-11-14T04:50:48.874Z,-1.72
2016-11-14T04:52:03.534Z,-1.63
2016-11-14T04:53:18.221Z,-1.67
2016-11-14T04:54:32.849Z,-1.7
2016-11-14T04:55:48.328Z,-1.72
2016-11-14T04:57:04.103Z,-1.7
2016-11-14T04:58:19.162Z,-1.69
2016-11-14T04:59:31.468Z,-1.7
2016-11-14T05:00:47.523Z,-1.66
2016-11-14T05:02:03.964Z,-1.81
2016-11-14T05:03:18.314Z,-1.87
2016-11-14T05:04:33.612Z,-2
2016-11-14T05:05:48.129Z,-2.1
2016-11-14T05:07:03.186Z,-1.99
2016-11-14T05:08:16.596Z,-2.11
2016-11-14T05:09:31.079Z,-2.11
2016-11-14T05:10:47.232Z,-2.1
2016-11-14T05:12:01.984Z,-2.13
2016-11-14T05:13:18.682Z,-2.21
2016-11-14T05:14:34.605Z,-2.26
2016-11-14T05:15:49.713Z,-2.32
2016-11-14T05:17:04.811Z,-2.33
2016-11-14T05:18:18.980Z,-2.35
2016-11-14T05:19:32.349Z,-2.4
2016-11-14T05:20:48.227Z,-2.36
2016-11-14T05:22:01.355Z,-2.24
2016-11-14T05:23:15.711Z,-2.16
2016-11-14T05:24:28.746Z,-2.17
2016-11-14T05:25:43.676Z,-2.1
2016-11-14T05:27:00.372Z,-2.13
2016-11-14T05:28:13.744Z,-2.1
2016-11-14T05:29:26.753Z,-2.06
2016-11-14T05:30:41.887Z,-1.99
2016-11-14T05:31:55.428Z,-2
2016-11-14T05:33:10.381Z,-2.02
2016-11-14T05:34:24.797Z,-1.98
2016-11-14T05:35:38.268Z,-2.05
2016-11-14T05:36:53.083Z,-1.92
2016-11-14T05:38:07.668Z,-1.92
2016-11-14T05:39:24.762Z,-1.93
2016-11-14T05:40:39.502Z,-1.93
2016-11-14T05:41:53.847Z,-1.88
2016-11-14T05:43:08.944Z,-1.88
2016-11-14T05:44:22.401Z,-1.92
2016-11-14T05:45:37.771Z,-1.96
2016-11-14T05:46:50.730Z,-1.81
2016-11-14T05:48:03.973Z,-1.81
2016-11-14T05:49:20.115Z,-1.9
2016-11-14T05:50:36.928Z,-1.9
2016-11-14T05:51:51.478Z,-1.92
2016-11-14T05:53:08.034Z,-1.95
2016-11-14T05:54:23.089Z,-1.88
2016-11-14T05:55:37.657Z,-1.85
2016-11-14T05:56:52.697Z,-1.84
2016-11-14T05:58:08.396Z,-1.84
2016-11-14T05:59:23.600Z,-1.78
2016-11-14T06:00:38.270Z,-1.88
2016-11-14T06:01:52.586Z,-1.93
2016-11-14T06:03:08.562Z,-1.88
2016-11-14T06:04:25.361Z,-2.03
2016-11-14T06:05:39.200Z,-2.1
2016-11-14T06:06:52.969Z,-2.02
2016-11-14T06:08:09.671Z,-2.08
2016-11-14T06:09:25.134Z,-1.95
2016-11-14T06:10:41.252Z,-1.93
2016-11-14T06:11:54.389Z,-1.85
2016-11-14T06:13:10.334Z,-1.9
2016-11-14T06:14:22.640Z,-1.96
2016-11-14T06:15:35.421Z,-1.88
2016-11-14T06:16:51.524Z,-1.85
2016-11-14T06:18:08.064Z,-1.88
2016-11-14T06:19:24.283Z,-1.84
2016-11-14T06:20:37.990Z,-1.88
2016-11-14T06:21:53.170Z,-1.96
2016-11-14T06:23:09.509Z,-1.93
2016-11-14T06:24:26.171Z,-1.9
2016-11-14T06:25:40.974Z,-1.9
2016-11-14T06:26:57.509Z,-2.02
2016-11-14T06:28:09.335Z,-2.06
2016-11-14T06:29:24.376Z,-2.02
2016-11-14T06:30:40.842Z,-2.05
2016-11-14T06:31:56.185Z,-1.92
2016-11-14T06:33:13.014Z,-1.95
2016-11-14T06:34:29.363Z,-1.9
2016-11-14T06:35:45.921Z,-1.88
2016-11-14T06:37:02.319Z,-1.88
2016-11-14T06:38:16.024Z,-1.75
2016-11-14T06:39:32.081Z,-1.92
2016-11-14T06:40:47.018Z,-1.92
2016-11-14T06:42:02.425Z,-1.92
2016-11-14T06:43:17.799Z,-1.93
2016-11-14T06:44:33.680Z,-1.82
2016-11-14T06:45:47.190Z,-1.93
2016-11-14T06:47:03.741Z,-1.85
2016-11-14T06:48:20.047Z,-1.78
2016-11-14T06:49:33.711Z,-1.77
2016-11-14T06:50:49.419Z,-1.7
2016-11-14T06:52:04.239Z,-1.72
2016-11-14T06:53:18.644Z,-1.72
2016-11-14T06:54:33.327Z,-1.77
2016-11-14T06:55:48.063Z,-1.72
2016-11-14T06:57:04.585Z,-1.78
2016-11-14T06:58:19.314Z,-1.64
2016-11-14T06:59:34.032Z,-1.69
2016-11-14T07:00:46.691Z,-1.7
2016-11-14T07:02:00.965Z,-1.69
2016-11-14T07:03:14.601Z,-1.7
2016-11-14T07:04:29.028Z,-1.64
2016-11-14T07:05:44.239Z,-1.64
2016-11-14T07:06:59.368Z,-1.62
2016-11-14T07:08:15.241Z,-1.64
2016-11-14T07:09:28.258Z,-1.57
2016-11-14T07:10:43.450Z,-1.63
2016-11-14T07:11:57.987Z,-1.6
2016-11-14T07:13:12.641Z,-1.56
2016-11-14T07:14:27.661Z,-1.56
2016-11-14T07:15:41.436Z,-1.48
2016-11-14T07:16:57.851Z,-1.49
2016-11-14T07:18:13.787Z,-1.49
2016-11-14T07:19:26.675Z,-1.41
2016-11-14T07:20:41.164Z,-1.45
2016-11-14T07:21:55.956Z,-1.36
2016-11-14T07:23:10.580Z,-1.3
2016-11-14T07:24:27.533Z,-1.36
2016-11-14T07:25:43.230Z,-1.35
2016-11-14T07:26:59.829Z,-1.25
2016-11-14T07:28:14.337Z,-0.99
2016-11-14T07:29:29.226Z,-0.63
2016-11-14T07:30:43.894Z,-0.18
2016-11-14T07:32:00.353Z,0.38
2016-11-14T07:33:16.387Z,0.98
2016-11-14T07:34:32.041Z,1.46
2016-11-14T07:35:47.099Z,2.02
2016-11-14T07:37:02.843Z,2.56
2016-11-14T07:38:17.879Z,3.09
2016-11-14T07:39:34.142Z,3.68
2016-11-14T07:40:48.748Z,4.1
2016-11-14T07:42:00.572Z,4.54
2016-11-14T07:43:17.008Z,4.92
2016-11-14T07:44:31.269Z,5.28
2016-11-14T07:45:47.813Z,5.7
2016-11-14T07:47:03.667Z,5.91
2016-11-14T07:48:15.459Z,6
2016-11-14T07:49:32.130Z,5.96
2016-11-14T07:50:48.659Z,5.92
2016-11-14T07:52:03.029Z,5.92
2016-11-14T07:53:17.963Z,6.04
2016-11-14T07:54:34.388Z,6.26
2016-11-14T07:55:47.991Z,6.36
2016-11-14T07:57:01.933Z,6.29
2016-11-14T07:58:18.372Z,6.28
2016-11-14T07:59:33.225Z,6.51
2016-11-14T08:00:49.140Z,6.66
2016-11-14T08:02:02.385Z,6.97
2016-11-14T08:03:16.808Z,7.13
2016-11-14T08:04:30.321Z,7.37
2016-11-14T08:05:45.846Z,7.37
2016-11-14T08:07:00.669Z,8
2016-11-14T08:08:16.874Z,8.39
2016-11-14T08:09:32.998Z,8.48
2016-11-14T08:10:47.306Z,8.62
2016-11-14T08:12:02.077Z,8.58
2016-11-14T08:13:18.714Z,8.5
2016-11-14T08:14:35.271Z,8.22
2016-11-14T08:15:49.021Z,8.26
2016-11-14T08:17:03.924Z,8.17
2016-11-14T08:18:20.788Z,8.15
2016-11-14T08:19:37.213Z,8.32
2016-11-14T08:20:52.221Z,8.03
2016-11-14T08:22:08.001Z,7.81
2016-11-14T08:23:24.468Z,7.66
2016-11-14T08:24:41.173Z,7.71
2016-11-14T08:25:55.558Z,8.02
2016-11-14T08:27:10.647Z,8.12
2016-11-14T08:28:26.071Z,8.33
2016-11-14T08:29:42.528Z,8.26
2016-11-14T08:30:59.052Z,8.03
2016-11-14T08:32:14.801Z,7.81
2016-11-14T08:33:29.957Z,7.87
2016-11-14T08:34:44.775Z,7.69
2016-11-14T08:35:59.570Z,7.41
2016-11-14T08:37:15.972Z,7.53
2016-11-14T08:38:32.164Z,7.62
2016-11-14T08:39:46.028Z,8.03
2016-11-14T08:41:00.611Z,8.17
2016-11-14T08:42:12.454Z,8.42
2016-11-14T08:43:27.179Z,8.83
2016-11-14T08:44:41.445Z,9.1
2016-11-14T08:45:56.552Z,9.48
2016-11-14T08:47:08.633Z,9.58
2016-11-14T08:48:22.544Z,9.75
2016-11-14T08:49:39.183Z,9.97
2016-11-14T08:50:54.092Z,9.96
2016-11-14T08:52:10.321Z,10.21
2016-11-14T08:53:26.674Z,10.71
2016-11-14T08:54:41.750Z,10.66
2016-11-14T08:55:56.361Z,11.2
2016-11-14T08:57:11.579Z,11.43
2016-11-14T08:58:27.337Z,11.39
2016-11-14T08:59:40.672Z,11.27
2016-11-14T09:00:57.608Z,11.65
2016-11-14T09:02:11.955Z,11.94
2016-11-14T09:03:26.433Z,11.65
2016-11-14T09:04:39.950Z,11.39
2016-11-14T09:05:52.272Z,11.39
2016-11-14T09:07:08.862Z,11.65
2016-11-14T09:08:24.900Z,12.09
2016-11-14T09:09:40.391Z,12.11
2016-11-14T09:10:54.041Z,12.41
2016-11-14T09:12:07.106Z,12.51
2016-11-14T09:13:18.930Z,12.82
2016-11-14T09:14:34.205Z,13.4
2016-11-14T09:15:50.449Z,13.91
2016-11-14T09:17:05.145Z,14.28
2016-11-14T09:18:20.661Z,14.67
2016-11-14T09:19:34.032Z,14.9
2016-11-14T09:20:49.233Z,15.23
2016-11-14T09:22:00.715Z,15.6
2016-11-14T09:23:15.261Z,15.43
2016-11-14T09:24:28.793Z,15.38
2016-11-14T09:25:42.634Z,15.21
2016-11-14T09:26:58.210Z,15.2
2016-11-14T09:28:14.104Z,15.6
2016-11-14T09:29:28.441Z,15.66
2016-11-14T09:30:43.556Z,16.07
2016-11-14T09:31:57.025Z,16
2016-11-14T09:33:12.948Z,15.38
2016-11-14T09:34:26.582Z,14.94
2016-11-14T09:35:41.952Z,14.49
2016-11-14T09:36:58.405Z,14.02
2016-11-14T09:38:13.018Z,13.61
2016-11-14T09:39:23.836Z,12.99
2016-11-14T09:40:40.536Z,12.67
2016-11-14T09:41:55.896Z,12.02
2016-11-14T09:43:12.402Z,11.44
2016-11-14T09:44:28.712Z,10.68
2016-11-14T09:45:37.706Z,10.3
2016-11-14T09:46:54.192Z,9.75
2016-11-14T09:48:08.842Z,9.45
2016-11-14T09:49:24.351Z,8.94
2016-11-14T09:50:38.977Z,8.81
2016-11-14T09:51:54.716Z,8.69
2016-11-14T09:53:11.137Z,8.57
2016-11-14T09:54:24.572Z,8.5
2016-11-14T09:55:38.509Z,8.5
2016-11-14T09:56:52.712Z,8.4
2016-11-14T09:58:06.169Z,8.26
2016-11-14T09:59:19.712Z,8.21
2016-11-14T10:00:32.927Z,8.08
2016-11-14T10:01:47.758Z,8.02
2016-11-14T10:02:56.865Z,7.82
2016-11-14T10:04:13.027Z,7.56
2016-11-14T10:05:29.594Z,7.63
2016-11-14T10:06:45.594Z,7.74
2016-11-14T10:08:02.426Z,7.99
2016-11-14T10:09:19.114Z,8.1
2016-11-14T10:10:35.231Z,8.25
2016-11-14T10:11:48.975Z,8.33
2016-11-14T10:13:05.077Z,8.26
2016-11-14T10:14:18.686Z,8.14
2016-11-14T10:15:33.276Z,8.11
2016-11-14T10:16:49.275Z,8.1
2016-11-14T10:18:05.727Z,8.11
2016-11-14T10:19:19.345Z,8.1
2016-11-14T10:20:36.207Z,7.89
2016-11-14T10:21:47.971Z,7.9
2016-11-14T10:23:02.460Z,7.85
2016-11-14T10:24:17.627Z,7.56
2016-11-14T10:25:34.792Z,7.49
2016-11-14T10:26:48.831Z,7.53
2016-11-14T10:28:03.212Z,7.35
2016-11-14T10:29:16.618Z,7.07
2016-11-14T10:30:32.838Z,7.05
2016-11-14T10:31:48.956Z,7.09
2016-11-14T10:33:04.684Z,7.01
2016-11-14T10:34:19.422Z,7.12
2016-11-14T10:35:34.180Z,7.16
2016-11-14T10:36:47.429Z,7.13
2016-11-14T10:38:03.348Z,7.09
2016-11-14T10:39:14.951Z,7.05
2016-11-14T10:40:29.458Z,7.07
2016-11-14T10:41:44.565Z,7.02
2016-11-14T10:42:59.964Z,6.99
2016-11-14T10:44:13.173Z,6.91
2016-11-14T10:45:29.055Z,7.09
2016-11-14T10:46:44.088Z,7.08
2016-11-14T10:47:58.935Z,6.98
2016-11-14T10:49:13.729Z,7.02
2016-11-14T10:50:28.790Z,6.94
2016-11-14T10:51:43.872Z,6.89
2016-11-14T10:52:57.030Z,6.97
2016-11-14T10:54:12.686Z,6.98
2016-11-14T10:55:28.574Z,6.95
2016-11-14T10:56:45.239Z,6.89
2016-11-14T10:57:58.284Z,6.86
2016-11-14T10:59:12.226Z,6.91
2016-11-14T11:00:28.997Z,6.97
2016-11-14T11:01:43.640Z,6.98
2016-11-14T11:02:57.827Z,6.87
2016-11-14T11:04:11.527Z,6.91
2016-11-14T11:05:27.587Z,6.95
2016-11-14T11:06:43.721Z,6.95
2016-11-14T11:07:57.969Z,6.84
2016-11-14T11:09:12.577Z,6.91
2016-11-14T11:10:27.017Z,7.05
2016-11-14T11:11:40.818Z,7.05
2016-11-14T11:12:57.935Z,7.12
2016-11-14T11:14:10.996Z,7.2
2016-11-14T11:15:27.291Z,7.19
2016-11-14T11:16:40.768Z,7.23
2016-11-14T11:17:56.399Z,7.2
2016-11-14T11:19:10.816Z,7.09
2016-11-14T11:20:24.255Z,7.09
2016-11-14T11:21:39.297Z,7.05
2016-11-14T11:22:54.346Z,7.23
2016-11-14T11:24:08.615Z,7.35
2016-11-14T11:25:23.195Z,7.42
2016-11-14T11:26:36.413Z,7.66
2016-11-14T11:27:49.923Z,7.72
2016-11-14T11:29:05.096Z,7.89
2016-11-14T11:30:20.001Z,7.81
2016-11-14T11:31:33.390Z,7.77
2016-11-14T11:32:48.476Z,7.72
2016-11-14T11:34:05.417Z,7.71
2016-11-14T11:35:20.744Z,7.72
2016-11-14T11:36:34.956Z,7.66
2016-11-14T11:37:49.527Z,7.72
2016-11-14T11:39:05.535Z,7.49
2016-11-14T11:40:21.944Z,7.4
2016-11-14T11:41:38.579Z,7.26
2016-11-14T11:42:55.143Z,7.12
2016-11-14T11:44:10.528Z,7.04
2016-11-14T11:45:24.210Z,7.04
2016-11-14T11:46:38.645Z,7.05
2016-11-14T11:47:53.802Z,7.12
2016-11-14T11:49:07.164Z,7.23
2016-11-14T11:50:20.240Z,7.19
2016-11-14T11:51:33.834Z,7.37
2016-11-14T11:52:47.034Z,7.4
2016-11-14T11:54:02.680Z,7.49
2016-11-14T11:55:18.846Z,7.22
2016-11-14T11:56:31.928Z,7.23
2016-11-14T11:57:46.940Z,7.16
2016-11-14T11:59:01.918Z,7.07
2016-11-14T12:00:18.388Z,7.05
2016-11-14T12:01:31.186Z,7.04
2016-11-14T12:02:45.656Z,7.07
2016-11-14T12:04:00.664Z,6.98
2016-11-14T12:05:15.427Z,6.91
2016-11-14T12:06:30.237Z,6.83
2016-11-14T12:07:45.592Z,6.86
2016-11-14T12:09:02.170Z,6.8
2016-11-14T12:10:15.905Z,6.71
2016-11-14T12:11:28.633Z,6.61
2016-11-14T12:12:43.022Z,6.62
2016-11-14T12:13:58.913Z,6.59
2016-11-14T12:15:12.375Z,6.61
2016-11-14T12:16:27.782Z,6.54
2016-11-14T12:17:43.697Z,6.54
2016-11-14T12:18:58.339Z,6.53
2016-11-14T12:20:10.381Z,6.5
2016-11-14T12:21:25.794Z,6.63
2016-11-14T12:22:42.246Z,6.68
2016-11-14T12:23:57.009Z,6.71
2016-11-14T12:25:10.656Z,6.63
2016-11-14T12:26:26.116Z,6.59
2016-11-14T12:27:39.563Z,6.53
2016-11-14T12:28:56.002Z,6.63
2016-11-14T12:30:11.398Z,6.65
2016-11-14T12:31:27.894Z,6.59
2016-11-14T12:32:43.094Z,6.47
2016-11-14T12:33:57.375Z,6.47
2016-11-14T12:35:12.527Z,6.44
2016-11-14T12:36:26.144Z,6.44
2016-11-14T12:37:42.663Z,6.28
2016-11-14T12:38:54.687Z,6.22
2016-11-14T12:40:09.382Z,6.3
2016-11-14T12:41:24.042Z,6.3
2016-11-14T12:42:40.773Z,6.3
2016-11-14T12:43:54.026Z,6.4
2016-11-14T12:45:07.489Z,6.41
2016-11-14T12:46:23.751Z,6.48
2016-11-14T12:47:40.159Z,6.4
2016-11-14T12:48:56.185Z,6.35
2016-11-14T12:50:10.820Z,6.51
2016-11-14T12:51:24.552Z,6.47
2016-11-14T12:52:39.542Z,6.51
2016-11-14T12:53:53.013Z,6.68
2016-11-14T12:55:08.242Z,6.68
2016-11-14T12:56:24.351Z,6.69
2016-11-14T12:57:40.452Z,6.76
2016-11-14T12:58:54.105Z,6.79
2016-11-14T13:00:10.188Z,6.84
2016-11-14T13:01:25.207Z,6.72
2016-11-14T13:02:38.406Z,6.69
2016-11-14T13:03:53.535Z,6.66
2016-11-14T13:05:09.403Z,6.56
2016-11-14T13:06:26.043Z,6.66
2016-11-14T13:07:40.071Z,6.71
2016-11-14T13:08:56.700Z,6.77
2016-11-14T13:10:13.619Z,6.83
2016-11-14T13:11:28.364Z,6.81
2016-11-14T13:12:43.469Z,6.97
2016-11-14T13:13:58.206Z,7.04
2016-11-14T13:15:12.976Z,7.07
2016-11-14T13:16:29.109Z,7.02
2016-11-14T13:17:43.373Z,7.05
2016-11-14T13:18:59.870Z,7.07
2016-11-14T13:20:14.339Z,7.04
2016-11-14T13:21:29.698Z,6.94
2016-11-14T13:22:45.819Z,6.99
2016-11-14T13:24:00.907Z,7.04
2016-11-14T13:25:14.416Z,6.97
2016-11-14T13:26:29.381Z,6.97
2016-11-14T13:27:45.716Z,7.08
2016-11-14T13:29:01.618Z,7.07
2016-11-14T13:30:15.188Z,6.97
2016-11-14T13:31:32.314Z,6.97
2016-11-14T13:32:48.387Z,7.01
2016-11-14T13:34:02.395Z,6.86
2016-11-14T13:35:18.788Z,6.91
2016-11-14T13:36:34.807Z,6.98
2016-11-14T13:37:51.257Z,6.87
2016-11-14T13:39:04.555Z,6.95
2016-11-14T13:40:19.156Z,6.81
2016-11-14T13:41:35.155Z,6.83
2016-11-14T13:42:51.478Z,6.86
2016-11-14T13:44:04.879Z,6.94
2016-11-14T13:45:21.256Z,6.98
2016-11-14T13:46:36.789Z,7.04
2016-11-14T13:47:53.650Z,6.99
2016-11-14T13:49:08.879Z,6.95
2016-11-14T13:50:25.733Z,7.04
2016-11-14T13:51:42.012Z,7.07
2016-11-14T13:52:55.152Z,7.09
2016-11-14T13:54:09.739Z,7.15
2016-11-14T13:55:23.538Z,7.17
2016-11-14T13:56:37.879Z,7.13
2016-11-14T13:57:52.828Z,7.19
2016-11-14T13:59:07.590Z,7.17
2016-11-14T14:00:23.869Z,7.2
2016-11-14T14:01:40.485Z,7.02
2016-11-14T14:02:55.504Z,6.98
2016-11-14T14:04:08.823Z,6.97
2016-11-14T14:05:21.982Z,6.94
2016-11-14T14:06:36.801Z,6.83
2016-11-14T14:07:51.640Z,6.84
2016-11-14T14:09:06.559Z,6.83
2016-11-14T14:10:22.200Z,6.84
2016-11-14T14:11:38.089Z,6.71
2016-11-14T14:12:51.908Z,6.73
2016-11-14T14:14:05.633Z,6.71
2016-11-14T14:15:20.478Z,6.76
2016-11-14T14:16:35.868Z,6.73
2016-11-14T14:17:50.448Z,6.76
2016-11-14T14:19:05.809Z,6.66
2016-11-14T14:20:20.715Z,6.65
2016-11-14T14:21:34.118Z,6.68
2016-11-14T14:22:49.525Z,6.62
2016-11-14T14:24:04.284Z,6.66
2016-11-14T14:25:16.419Z,6.73
2016-11-14T14:26:31.067Z,6.72
2016-11-14T14:27:44.451Z,6.72
2016-11-14T14:28:57.661Z,6.66
2016-11-14T14:30:11.732Z,6.71
2016-11-14T14:31:26.329Z,6.77
2016-11-14T14:32:39.895Z,6.79
2016-11-14T14:33:54.403Z,6.68
2016-11-14T14:35:08.898Z,6.69
2016-11-14T14:36:22.750Z,6.65
2016-11-14T14:37:37.454Z,6.54
2016-11-14T14:38:53.185Z,6.58
2016-11-14T14:40:06.057Z,6.56
2016-11-14T14:41:21.320Z,6.56
2016-11-14T14:42:36.301Z,6.56
2016-11-14T14:43:52.655Z,6.43
2016-11-14T14:45:07.768Z,6.5
2016-11-14T14:46:24.101Z,6.48
2016-11-14T14:47:37.265Z,6.58
2016-11-14T14:48:49.089Z,6.51
2016-11-14T14:50:03.919Z,6.47
2016-11-14T14:51:19.026Z,6.48
2016-11-14T14:52:34.116Z,6.44
2016-11-14T14:53:50.491Z,6.47
2016-11-14T14:55:06.554Z,6.46
2016-11-14T14:56:19.601Z,6.51
2016-11-14T14:57:32.779Z,6.53
2016-11-14T14:58:47.448Z,6.5
2016-11-14T15:00:00.969Z,6.33
2016-11-14T15:01:17.484Z,6.38
2016-11-14T15:02:31.229Z,6.44
2016-11-14T15:03:46.735Z,6.35
2016-11-14T15:05:01.653Z,6.38
2016-11-14T15:06:15.697Z,6.38
2016-11-14T15:07:28.908Z,6.36
2016-11-14T15:08:44.164Z,6.41
2016-11-14T15:10:00.241Z,6.41
2016-11-14T15:11:16.778Z,6.41
2016-11-14T15:12:31.911Z,6.38
2016-11-14T15:13:44.516Z,6.33
2016-11-14T15:14:59.275Z,6.32
2016-11-14T15:16:11.125Z,6.32
2016-11-14T15:17:25.766Z,6.28
2016-11-14T15:18:40.817Z,6.32
2016-11-14T15:19:57.499Z,6.29
2016-11-14T15:21:11.593Z,6.33
2016-11-14T15:22:28.148Z,6.26
2016-11-14T15:23:42.737Z,6.29
2016-11-14T15:24:56.988Z,6.19
2016-11-14T15:26:11.255Z,6.11
2016-11-14T15:27:26.075Z,6.13
2016-11-14T15:28:42.830Z,6.07
2016-11-14T15:29:59.002Z,6.13
2016-11-14T15:31:14.221Z,6.07
2016-11-14T15:32:27.821Z,6
2016-11-14T15:33:44.532Z,5.98
2016-11-14T15:35:01.108Z,6
2016-11-14T15:36:17.490Z,5.96
2016-11-14T15:37:31.897Z,5.98
2016-11-14T15:38:47.558Z,6.03
2016-11-14T15:40:02.155Z,5.96
2016-11-14T15:41:17.163Z,5.96
2016-11-14T15:42:34.167Z,6
2016-11-14T15:43:50.679Z,5.96
2016-11-14T15:45:02.625Z,5.98
2016-11-14T15:46:16.140Z,6
2016-11-14T15:47:32.199Z,5.98
2016-11-14T15:48:48.920Z,5.96
2016-11-14T15:50:05.084Z,5.93
2016-11-14T15:51:20.551Z,5.95
2016-11-14T15:52:34.659Z,5.95
2016-11-14T15:53:51.707Z,6.01
2016-11-14T15:55:05.617Z,6.06
2016-11-14T15:56:18.346Z,6.06
2016-11-14T15:57:33.755Z,5.95
2016-11-14T15:58:47.588Z,5.93
2016-11-14T16:00:00.991Z,5.95
2016-11-14T16:04:47.251Z,5.98
2016-11-14T16:06:02.832Z,5.98
2016-11-14T16:07:15.749Z,6
2016-11-14T16:08:31.140Z,5.93
2016-11-14T16:09:45.946Z,6
2016-11-14T16:11:00.363Z,5.89
2016-11-14T16:12:16.551Z,6
2016-11-14T16:13:32.736Z,6
2016-11-14T16:14:48.097Z,6.04
2016-11-14T16:16:03.186Z,5.92
2016-11-14T16:17:19.478Z,5.98
2016-11-14T16:18:34.175Z,6.01
2016-11-14T16:19:50.641Z,5.95
2016-11-14T16:21:06.289Z,5.98
2016-11-14T16:22:20.659Z,5.98
2016-11-14T16:23:34.701Z,6.01
2016-11-14T16:24:47.991Z,5.92
2016-11-14T16:26:03.844Z,5.92
2016-11-14T16:27:20.404Z,5.86
2016-11-14T16:28:33.897Z,5.93
2016-11-14T16:29:49.643Z,5.83